sensor_id;sensor_type;location;lat;lon;timestamp;pressure;altitude;pressure_sealevel;temperature;humidity
71917;BME280;59793;46.506;6.674;2023-03-04T00:01:05;97541.13;;;5.10;69.54
71917;BME280;59793;46.506;6.674;2023-03-04T00:03:31;97534.44;;;4.90;69.61
71917;BME280;59793;46.506;6.674;2023-03-04T00:05:56;97527.31;;;4.68;70.38
71917;BME280;59793;46.506;6.674;2023-03-04T00:08:21;97553.09;;;4.70;70.67
71917;BME280;59793;46.506;6.674;2023-03-04T00:10:47;97527.09;;;4.51;70.92
71917;BME280;59793;46.506;6.674;2023-03-04T00:13:12;97520.53;;;4.40;70.99
71917;BME280;59793;46.506;6.674;2023-03-04T00:15:38;97510.66;;;4.37;71.33
71917;BME280;59793;46.506;6.674;2023-03-04T00:18:03;97508.63;;;4.34;71.06
71917;BME280;59793;46.506;6.674;2023-03-04T00:20:28;97501.94;;;4.27;71.23
71917;BME280;59793;46.506;6.674;2023-03-04T00:22:54;97533.56;;;4.40;71.79
71917;BME280;59793;46.506;6.674;2023-03-04T00:25:19;97516.63;;;4.23;72.47
71917;BME280;59793;46.506;6.674;2023-03-04T00:27:44;97518.66;;;4.26;72.03
71917;BME280;59793;46.506;6.674;2023-03-04T00:30:11;97551.53;;;4.41;72.42
71917;BME280;59793;46.506;6.674;2023-03-04T00:32:36;97546.69;;;4.35;71.98
71917;BME280;59793;46.506;6.674;2023-03-04T00:35:02;97496.00;;;3.94;72.30
71917;BME280;59793;46.506;6.674;2023-03-04T00:37:27;97548.44;;;4.25;72.87
71917;BME280;59793;46.506;6.674;2023-03-04T00:39:53;97493.41;;;3.94;72.40
71917;BME280;59793;46.506;6.674;2023-03-04T00:42:18;97541.16;;;4.22;72.21
71917;BME280;59793;46.506;6.674;2023-03-04T00:44:43;97538.47;;;4.27;72.08
71917;BME280;59793;46.506;6.674;2023-03-04T00:47:09;97502.59;;;4.05;72.09
71917;BME280;59793;46.506;6.674;2023-03-04T00:49:34;97544.47;;;4.28;71.68
71917;BME280;59793;46.506;6.674;2023-03-04T00:51:59;97557.53;;;4.28;72.17
71917;BME280;59793;46.506;6.674;2023-03-04T00:54:25;97524.47;;;3.91;72.79
71917;BME280;59793;46.506;6.674;2023-03-04T00:56:51;97527.13;;;4.04;71.93
71917;BME280;59793;46.506;6.674;2023-03-04T00:59:16;97532.03;;;4.06;72.24
71917;BME280;59793;46.506;6.674;2023-03-04T01:01:42;97556.25;;;4.25;71.98
71917;BME280;59793;46.506;6.674;2023-03-04T01:04:07;97557.94;;;4.16;72.39
71917;BME280;59793;46.506;6.674;2023-03-04T01:06:32;97550.47;;;3.96;73.66
71917;BME280;59793;46.506;6.674;2023-03-04T01:08:58;97525.44;;;3.95;73.16
71917;BME280;59793;46.506;6.674;2023-03-04T01:11:23;97552.16;;;4.19;73.20
71917;BME280;59793;46.506;6.674;2023-03-04T01:13:49;97506.03;;;3.87;73.09
71917;BME280;59793;46.506;6.674;2023-03-04T01:16:14;97541.34;;;4.12;72.69
71917;BME280;59793;46.506;6.674;2023-03-04T01:18:39;97548.09;;;4.13;72.48
71917;BME280;59793;46.506;6.674;2023-03-04T01:21:05;97519.09;;;4.01;72.23
71917;BME280;59793;46.506;6.674;2023-03-04T01:23:31;97537.88;;;4.17;72.64
71917;BME280;59793;46.506;6.674;2023-03-04T01:25:56;97538.06;;;4.06;72.89
71917;BME280;59793;46.506;6.674;2023-03-04T01:28:22;97542.09;;;4.13;72.50
71917;BME280;59793;46.506;6.674;2023-03-04T01:30:47;97508.94;;;3.86;72.80
71917;BME280;59793;46.506;6.674;2023-03-04T01:33:13;97538.16;;;4.15;72.43
71917;BME280;59793;46.506;6.674;2023-03-04T01:35:38;97486.75;;;3.69;72.52
71917;BME280;59793;46.506;6.674;2023-03-04T01:38:03;97526.41;;;3.99;72.82
71917;BME280;59793;46.506;6.674;2023-03-04T01:40:30;97513.66;;;3.83;72.81
71917;BME280;59793;46.506;6.674;2023-03-04T01:42:56;97536.38;;;3.97;73.01
71917;BME280;59793;46.506;6.674;2023-03-04T01:45:21;97494.09;;;3.67;73.20
71917;BME280;59793;46.506;6.674;2023-03-04T01:47:48;97443.84;;;3.48;72.89
71917;BME280;59793;46.506;6.674;2023-03-04T01:50:26;97528.47;;;4.02;72.78
71917;BME280;59793;46.506;6.674;2023-03-04T01:52:52;97524.81;;;4.03;72.95
71917;BME280;59793;46.506;6.674;2023-03-04T01:55:20;97525.84;;;4.02;72.83
71917;BME280;59793;46.506;6.674;2023-03-04T01:57:48;97505.91;;;3.78;73.54
71917;BME280;59793;46.506;6.674;2023-03-04T02:00:30;97526.16;;;3.81;73.93
71917;BME280;59793;46.506;6.674;2023-03-04T02:03:15;97509.97;;;3.84;73.75
71917;BME280;59793;46.506;6.674;2023-03-04T02:05:45;97526.63;;;4.02;73.24
71917;BME280;59793;46.506;6.674;2023-03-04T02:08:12;97523.34;;;3.97;73.65
71917;BME280;59793;46.506;6.674;2023-03-04T02:10:39;97498.50;;;3.86;73.51
71917;BME280;59793;46.506;6.674;2023-03-04T02:13:06;97487.19;;;3.76;73.70
71917;BME280;59793;46.506;6.674;2023-03-04T02:15:31;97467.75;;;3.69;73.36
71917;BME280;59793;46.506;6.674;2023-03-04T02:17:57;97517.56;;;4.00;73.43
71917;BME280;59793;46.506;6.674;2023-03-04T02:23:08;97507.41;;;3.98;73.62
71917;BME280;59793;46.506;6.674;2023-03-04T02:25:44;97507.81;;;4.05;73.50
71917;BME280;59793;46.506;6.674;2023-03-04T02:28:11;97513.88;;;4.01;73.79
71917;BME280;59793;46.506;6.674;2023-03-04T02:30:37;97501.41;;;3.98;73.88
71917;BME280;59793;46.506;6.674;2023-03-04T02:33:03;97510.63;;;4.09;73.84
71917;BME280;59793;46.506;6.674;2023-03-04T02:35:28;97505.59;;;4.13;73.48
71917;BME280;59793;46.506;6.674;2023-03-04T02:37:54;97487.81;;;4.01;73.10
71917;BME280;59793;46.506;6.674;2023-03-04T02:40:26;97459.66;;;4.03;73.01
71917;BME280;59793;46.506;6.674;2023-03-04T02:42:52;97512.78;;;4.48;73.00
71917;BME280;59793;46.506;6.674;2023-03-04T02:45:39;97510.09;;;4.40;73.00
71917;BME280;59793;46.506;6.674;2023-03-04T02:48:06;97490.38;;;4.34;73.10
71917;BME280;59793;46.506;6.674;2023-03-04T02:50:42;97498.50;;;4.46;72.86
71917;BME280;59793;46.506;6.674;2023-03-04T02:53:09;97508.34;;;4.63;72.44
71917;BME280;59793;46.506;6.674;2023-03-04T02:55:35;97504.31;;;4.70;72.11
71917;BME280;59793;46.506;6.674;2023-03-04T02:58:00;97508.94;;;4.73;71.85
71917;BME280;59793;46.506;6.674;2023-03-04T03:00:26;97458.69;;;4.40;71.94
71917;BME280;59793;46.506;6.674;2023-03-04T03:02:52;97484.28;;;4.66;71.66
71917;BME280;59793;46.506;6.674;2023-03-04T03:05:18;97490.00;;;4.68;71.86
71917;BME280;59793;46.506;6.674;2023-03-04T03:07:43;97503.50;;;4.84;71.67
71917;BME280;59793;46.506;6.674;2023-03-04T03:10:09;97477.91;;;4.58;71.78
71917;BME280;59793;46.506;6.674;2023-03-04T03:12:35;97502.94;;;4.87;71.73
71917;BME280;59793;46.506;6.674;2023-03-04T03:15:00;97499.38;;;4.83;72.00
71917;BME280;59793;46.506;6.674;2023-03-04T03:17:26;97432.41;;;4.37;71.73
71917;BME280;59793;46.506;6.674;2023-03-04T03:19:51;97490.56;;;4.78;72.09
71917;BME280;59793;46.506;6.674;2023-03-04T03:22:16;97498.22;;;4.89;71.84
71917;BME280;59793;46.506;6.674;2023-03-04T03:24:42;97493.19;;;4.92;71.87
71917;BME280;59793;46.506;6.674;2023-03-04T03:27:07;97489.22;;;4.95;71.52
71917;BME280;59793;46.506;6.674;2023-03-04T03:29:32;97488.41;;;4.94;71.87
71917;BME280;59793;46.506;6.674;2023-03-04T03:31:58;97466.56;;;4.90;71.52
71917;BME280;59793;46.506;6.674;2023-03-04T03:34:23;97460.59;;;4.76;71.47
71917;BME280;59793;46.506;6.674;2023-03-04T03:36:49;97487.47;;;4.90;71.85
71917;BME280;59793;46.506;6.674;2023-03-04T03:39:14;97488.47;;;4.81;72.32
71917;BME280;59793;46.506;6.674;2023-03-04T03:41:40;97471.34;;;4.74;72.05
71917;BME280;59793;46.506;6.674;2023-03-04T03:44:06;97421.41;;;4.40;72.18
71917;BME280;59793;46.506;6.674;2023-03-04T03:46:31;97458.00;;;4.62;72.61
71917;BME280;59793;46.506;6.674;2023-03-04T03:48:57;97459.06;;;4.61;72.95
71917;BME280;59793;46.506;6.674;2023-03-04T03:51:22;97477.91;;;4.72;73.00
71917;BME280;59793;46.506;6.674;2023-03-04T03:53:47;97492.28;;;4.97;72.53
71917;BME280;59793;46.506;6.674;2023-03-04T03:56:13;97476.94;;;4.82;72.35
71917;BME280;59793;46.506;6.674;2023-03-04T03:58:38;97465.06;;;4.75;72.36
71917;BME280;59793;46.506;6.674;2023-03-04T04:01:04;97464.66;;;4.82;72.24
71917;BME280;59793;46.506;6.674;2023-03-04T04:03:29;97495.28;;;5.04;72.35
71917;BME280;59793;46.506;6.674;2023-03-04T04:05:55;97469.19;;;4.76;72.39
71917;BME280;59793;46.506;6.674;2023-03-04T04:08:20;97473.44;;;4.86;72.31
71917;BME280;59793;46.506;6.674;2023-03-04T04:10:45;97492.66;;;5.04;72.50
71917;BME280;59793;46.506;6.674;2023-03-04T04:13:11;97501.16;;;5.23;71.76
71917;BME280;59793;46.506;6.674;2023-03-04T04:15:37;97450.53;;;4.97;71.50
71917;BME280;59793;46.506;6.674;2023-03-04T04:18:04;97475.25;;;5.13;71.64
71917;BME280;59793;46.506;6.674;2023-03-04T04:20:29;97469.44;;;5.16;71.33
71917;BME280;59793;46.506;6.674;2023-03-04T04:22:55;97491.06;;;5.31;71.09
71917;BME280;59793;46.506;6.674;2023-03-04T04:25:20;97490.31;;;5.30;71.37
71917;BME280;59793;46.506;6.674;2023-03-04T04:27:46;97439.78;;;4.98;71.24
71917;BME280;59793;46.506;6.674;2023-03-04T04:30:11;97513.94;;;5.47;71.24
71917;BME280;59793;46.506;6.674;2023-03-04T04:32:37;97512.22;;;5.43;71.32
71917;BME280;59793;46.506;6.674;2023-03-04T04:35:02;97509.78;;;5.46;71.33
71917;BME280;59793;46.506;6.674;2023-03-04T04:37:28;97488.91;;;5.33;71.19
71917;BME280;59793;46.506;6.674;2023-03-04T04:39:53;97467.00;;;5.20;71.35
71917;BME280;59793;46.506;6.674;2023-03-04T04:42:20;97516.50;;;5.39;71.71
71917;BME280;59793;46.506;6.674;2023-03-04T04:44:46;97480.72;;;5.25;71.41
71917;BME280;59793;46.506;6.674;2023-03-04T04:47:11;97509.91;;;5.41;70.77
71917;BME280;59793;46.506;6.674;2023-03-04T04:49:37;97507.75;;;5.43;70.64
71917;BME280;59793;46.506;6.674;2023-03-04T04:52:02;97483.41;;;5.34;69.84
71917;BME280;59793;46.506;6.674;2023-03-04T04:54:28;97475.09;;;5.32;69.27
71917;BME280;59793;46.506;6.674;2023-03-04T04:56:53;97491.25;;;5.34;69.49
71917;BME280;59793;46.506;6.674;2023-03-04T04:59:19;97501.06;;;5.51;69.10
71917;BME280;59793;46.506;6.674;2023-03-04T05:01:44;97493.28;;;5.37;68.95
71917;BME280;59793;46.506;6.674;2023-03-04T05:04:09;97476.44;;;5.30;68.99
71917;BME280;59793;46.506;6.674;2023-03-04T05:06:35;97499.22;;;5.51;68.79
71917;BME280;59793;46.506;6.674;2023-03-04T05:09:00;97475.41;;;5.31;68.71
71917;BME280;59793;46.506;6.674;2023-03-04T05:11:26;97523.88;;;5.59;68.73
71917;BME280;59793;46.506;6.674;2023-03-04T05:13:52;97505.47;;;5.64;68.68
71917;BME280;59793;46.506;6.674;2023-03-04T05:16:18;97523.00;;;5.64;68.66
71917;BME280;59793;46.506;6.674;2023-03-04T05:18:44;97514.78;;;5.57;68.98
71917;BME280;59793;46.506;6.674;2023-03-04T05:21:09;97490.72;;;5.46;68.72
71917;BME280;59793;46.506;6.674;2023-03-04T05:23:37;97515.19;;;5.50;69.38
71917;BME280;59793;46.506;6.674;2023-03-04T05:26:04;97483.91;;;5.22;69.54
71917;BME280;59793;46.506;6.674;2023-03-04T05:28:31;97503.91;;;5.41;69.70
71917;BME280;59793;46.506;6.674;2023-03-04T05:30:57;97452.78;;;5.12;68.93
71917;BME280;59793;46.506;6.674;2023-03-04T05:33:22;97432.53;;;4.95;69.13
71917;BME280;59793;46.506;6.674;2023-03-04T05:35:48;97459.97;;;5.07;69.65
71917;BME280;59793;46.506;6.674;2023-03-04T05:38:16;97504.50;;;5.38;69.33
71917;BME280;59793;46.506;6.674;2023-03-04T05:40:42;97509.22;;;5.36;69.58
71917;BME280;59793;46.506;6.674;2023-03-04T05:43:08;97515.41;;;5.40;69.18
71917;BME280;59793;46.506;6.674;2023-03-04T05:45:34;97517.97;;;5.31;69.22
71917;BME280;59793;46.506;6.674;2023-03-04T05:48:00;97491.53;;;4.96;70.13
71917;BME280;59793;46.506;6.674;2023-03-04T05:50:26;97521.06;;;5.19;69.96
71917;BME280;59793;46.506;6.674;2023-03-04T05:52:52;97504.84;;;5.09;69.93
71917;BME280;59793;46.506;6.674;2023-03-04T05:55:17;97488.16;;;4.96;70.08
71917;BME280;59793;46.506;6.674;2023-03-04T05:57:44;97518.19;;;5.07;70.27
71917;BME280;59793;46.506;6.674;2023-03-04T06:00:11;97531.56;;;5.06;70.82
71917;BME280;59793;46.506;6.674;2023-03-04T06:02:38;97511.34;;;4.97;70.79
71917;BME280;59793;46.506;6.674;2023-03-04T06:05:04;97488.84;;;4.88;70.53
71917;BME280;59793;46.506;6.674;2023-03-04T06:07:30;97528.25;;;5.14;70.34
71917;BME280;59793;46.506;6.674;2023-03-04T06:09:56;97488.84;;;4.88;70.22
71917;BME280;59793;46.506;6.674;2023-03-04T06:12:21;97519.44;;;5.23;70.05
71917;BME280;59793;46.506;6.674;2023-03-04T06:14:47;97535.50;;;5.17;70.28
71917;BME280;59793;46.506;6.674;2023-03-04T06:17:12;97533.53;;;5.22;70.44
71917;BME280;59793;46.506;6.674;2023-03-04T06:19:38;97491.44;;;4.88;70.66
71917;BME280;59793;46.506;6.674;2023-03-04T06:22:06;97540.44;;;5.04;71.29
71917;BME280;59793;46.506;6.674;2023-03-04T06:24:31;97515.53;;;4.71;71.85
71917;BME280;59793;46.506;6.674;2023-03-04T06:26:57;97536.16;;;5.09;70.94
71917;BME280;59793;46.506;6.674;2023-03-04T06:29:22;97516.28;;;4.99;70.81
71917;BME280;59793;46.506;6.674;2023-03-04T06:31:48;97474.53;;;4.85;70.60
71917;BME280;59793;46.506;6.674;2023-03-04T06:34:13;97538.31;;;5.20;70.95
71917;BME280;59793;46.506;6.674;2023-03-04T06:36:38;97474.03;;;4.83;70.25
71917;BME280;59793;46.506;6.674;2023-03-04T06:39:05;97499.13;;;5.20;69.73
71917;BME280;59793;46.506;6.674;2023-03-04T06:41:32;97546.28;;;5.51;69.62
71917;BME280;59793;46.506;6.674;2023-03-04T06:43:57;97530.13;;;5.36;69.46
71917;BME280;59793;46.506;6.674;2023-03-04T06:46:23;97545.59;;;5.46;69.25
71917;BME280;59793;46.506;6.674;2023-03-04T06:48:48;97520.34;;;5.41;69.42
71917;BME280;59793;46.506;6.674;2023-03-04T06:51:14;97534.06;;;5.47;68.97
71917;BME280;59793;46.506;6.674;2023-03-04T06:53:40;97529.78;;;5.51;69.18
71917;BME280;59793;46.506;6.674;2023-03-04T06:56:06;97546.94;;;5.80;68.39
71917;BME280;59793;46.506;6.674;2023-03-04T06:58:32;97546.81;;;5.85;68.11
71917;BME280;59793;46.506;6.674;2023-03-04T07:01:09;97540.28;;;5.73;68.24
71917;BME280;59793;46.506;6.674;2023-03-04T07:03:35;97508.44;;;5.71;67.58
71917;BME280;59793;46.506;6.674;2023-03-04T07:06:00;97556.88;;;6.14;67.27
71917;BME280;59793;46.506;6.674;2023-03-04T07:08:25;97558.97;;;6.26;66.95
71917;BME280;59793;46.506;6.674;2023-03-04T07:10:51;97551.66;;;6.36;66.13
71917;BME280;59793;46.506;6.674;2023-03-04T07:13:16;97560.47;;;6.49;65.75
71917;BME280;59793;46.506;6.674;2023-03-04T07:15:41;97558.06;;;6.61;64.98
71917;BME280;59793;46.506;6.674;2023-03-04T07:18:07;97531.94;;;6.39;65.35
71917;BME280;59793;46.506;6.674;2023-03-04T07:20:32;97535.50;;;6.43;65.10
71917;BME280;59793;46.506;6.674;2023-03-04T07:22:58;97551.28;;;6.60;64.68
71917;BME280;59793;46.506;6.674;2023-03-04T07:25:23;97526.16;;;6.51;64.75
71917;BME280;59793;46.506;6.674;2023-03-04T07:27:48;97570.50;;;6.95;64.21
71917;BME280;59793;46.506;6.674;2023-03-04T07:30:15;97552.00;;;6.92;63.49
71917;BME280;59793;46.506;6.674;2023-03-04T07:32:41;97571.31;;;7.13;63.35
71917;BME280;59793;46.506;6.674;2023-03-04T07:35:06;97553.91;;;7.09;63.71
71917;BME280;59793;46.506;6.674;2023-03-04T07:37:32;97575.88;;;7.39;63.23
71917;BME280;59793;46.506;6.674;2023-03-04T07:39:57;97563.53;;;7.65;62.41
71917;BME280;59793;46.506;6.674;2023-03-04T07:42:22;97523.44;;;7.39;62.96
71917;BME280;59793;46.506;6.674;2023-03-04T07:44:48;97547.19;;;7.69;62.75
71917;BME280;59793;46.506;6.674;2023-03-04T07:47:13;97562.75;;;8.00;61.46
71917;BME280;59793;46.506;6.674;2023-03-04T07:49:38;97546.69;;;8.10;60.43
71917;BME280;59793;46.506;6.674;2023-03-04T07:52:05;97565.78;;;8.36;60.21
71917;BME280;59793;46.506;6.674;2023-03-04T07:54:31;97553.00;;;8.18;59.42
71917;BME280;59793;46.506;6.674;2023-03-04T07:56:56;97550.34;;;8.26;59.30
71917;BME280;59793;46.506;6.674;2023-03-04T07:59:22;97579.22;;;8.44;59.13
71917;BME280;59793;46.506;6.674;2023-03-04T08:01:47;97516.78;;;7.76;60.08
71917;BME280;59793;46.506;6.674;2023-03-04T08:04:13;97574.94;;;8.22;61.34
71917;BME280;59793;46.506;6.674;2023-03-04T08:06:40;97574.50;;;8.02;61.65
71917;BME280;59793;46.506;6.674;2023-03-04T08:09:06;97586.34;;;8.08;61.38
71917;BME280;59793;46.506;6.674;2023-03-04T08:11:34;97594.41;;;7.86;62.73
71917;BME280;59793;46.506;6.674;2023-03-04T08:14:00;97580.34;;;7.47;64.24
71917;BME280;59793;46.506;6.674;2023-03-04T08:16:26;97591.91;;;7.46;63.70
71917;BME280;59793;46.506;6.674;2023-03-04T08:18:54;97591.72;;;7.34;64.24
71917;BME280;59793;46.506;6.674;2023-03-04T08:21:22;97596.78;;;7.22;64.38
71917;BME280;59793;46.506;6.674;2023-03-04T08:23:49;97585.19;;;7.05;64.43
71917;BME280;59793;46.506;6.674;2023-03-04T08:26:27;97590.16;;;7.24;64.79
71917;BME280;59793;46.506;6.674;2023-03-04T08:28:52;97587.88;;;7.49;63.65
71917;BME280;59793;46.506;6.674;2023-03-04T08:31:19;97569.38;;;7.45;63.06
71917;BME280;59793;46.506;6.674;2023-03-04T08:33:45;97583.44;;;7.84;62.65
71917;BME280;59793;46.506;6.674;2023-03-04T08:36:11;97575.09;;;7.56;62.57
71917;BME280;59793;46.506;6.674;2023-03-04T08:38:37;97600.41;;;8.04;62.33
71917;BME280;59793;46.506;6.674;2023-03-04T08:41:02;97565.22;;;7.87;60.14
71917;BME280;59793;46.506;6.674;2023-03-04T08:43:28;97598.41;;;8.09;61.51
71917;BME280;59793;46.506;6.674;2023-03-04T08:45:54;97597.78;;;8.12;60.30
71917;BME280;59793;46.506;6.674;2023-03-04T08:48:21;97584.97;;;8.11;60.08
71917;BME280;59793;46.506;6.674;2023-03-04T08:50:47;97593.31;;;8.13;59.61
71917;BME280;59793;46.506;6.674;2023-03-04T08:53:13;97572.63;;;7.51;61.46
71917;BME280;59793;46.506;6.674;2023-03-04T08:55:39;97595.63;;;7.62;61.01
71917;BME280;59793;46.506;6.674;2023-03-04T08:58:04;97583.72;;;7.39;62.28
71917;BME280;59793;46.506;6.674;2023-03-04T09:00:31;97568.84;;;7.08;62.53
71917;BME280;59793;46.506;6.674;2023-03-04T09:02:56;97587.34;;;7.03;63.65
71917;BME280;59793;46.506;6.674;2023-03-04T09:05:22;97586.72;;;7.06;63.91
71917;BME280;59793;46.506;6.674;2023-03-04T09:07:47;97593.97;;;7.09;63.41
71917;BME280;59793;46.506;6.674;2023-03-04T09:10:13;97571.41;;;6.91;63.09
71917;BME280;59793;46.506;6.674;2023-03-04T09:12:38;97522.75;;;6.50;63.41
71917;BME280;59793;46.506;6.674;2023-03-04T09:15:04;97587.91;;;6.91;63.22
71917;BME280;59793;46.506;6.674;2023-03-04T09:17:31;97575.13;;;6.90;62.52
71917;BME280;59793;46.506;6.674;2023-03-04T09:19:56;97618.63;;;7.00;62.09
71917;BME280;59793;46.506;6.674;2023-03-04T09:22:21;97597.28;;;6.84;62.52
71917;BME280;59793;46.506;6.674;2023-03-04T09:24:47;97590.84;;;6.90;62.68
71917;BME280;59793;46.506;6.674;2023-03-04T09:27:12;97610.41;;;6.92;62.65
71917;BME280;59793;46.506;6.674;2023-03-04T09:29:37;97617.38;;;7.06;63.35
71917;BME280;59793;46.506;6.674;2023-03-04T09:32:03;97608.47;;;7.07;63.65
71917;BME280;59793;46.506;6.674;2023-03-04T09:34:29;97562.16;;;6.85;62.22
71917;BME280;59793;46.506;6.674;2023-03-04T09:36:54;97594.31;;;7.16;61.45
71917;BME280;59793;46.506;6.674;2023-03-04T09:39:19;97605.44;;;7.31;60.90
71917;BME280;59793;46.506;6.674;2023-03-04T09:41:48;97603.31;;;7.59;60.05
71917;BME280;59793;46.506;6.674;2023-03-04T09:44:24;97593.31;;;7.70;60.31
71917;BME280;59793;46.506;6.674;2023-03-04T09:46:55;97600.44;;;7.95;59.65
71917;BME280;59793;46.506;6.674;2023-03-04T09:49:23;97565.84;;;7.58;59.01
71917;BME280;59793;46.506;6.674;2023-03-04T09:57:50;97575.88;;;7.74;60.30
71917;BME280;59793;46.506;6.674;2023-03-04T10:00:20;97596.38;;;8.15;59.21
71917;BME280;59793;46.506;6.674;2023-03-04T10:05:30;97594.63;;;8.63;57.47
71917;BME280;59793;46.506;6.674;2023-03-04T10:10:40;97593.31;;;8.86;55.87
71917;BME280;59793;46.506;6.674;2023-03-04T10:13:14;97567.50;;;9.18;53.67
71917;BME280;59793;46.506;6.674;2023-03-04T10:15:48;97553.19;;;9.06;53.39
71917;BME280;59793;46.506;6.674;2023-03-04T10:18:22;97584.34;;;9.17;53.67
71917;BME280;59793;46.506;6.674;2023-03-04T10:23:34;97577.16;;;9.55;51.86
71917;BME280;59793;46.506;6.674;2023-03-04T10:26:10;97573.81;;;9.46;53.39
71917;BME280;59793;46.506;6.674;2023-03-04T10:28:37;97562.66;;;9.49;54.11
71917;BME280;59793;46.506;6.674;2023-03-04T10:31:14;97554.88;;;9.32;55.07
71917;BME280;59793;46.506;6.674;2023-03-04T10:33:41;97575.63;;;9.54;54.48
71917;BME280;59793;46.506;6.674;2023-03-04T10:37:16;97566.16;;;9.32;54.75
71917;BME280;59793;46.506;6.674;2023-03-04T10:39:12;97523.16;;;9.07;54.71
71917;BME280;59793;46.506;6.674;2023-03-04T10:41:44;97551.72;;;9.18;55.05
71917;BME280;59793;46.506;6.674;2023-03-04T10:46:46;97561.00;;;9.87;53.77
71917;BME280;59793;46.506;6.674;2023-03-04T10:49:14;97552.31;;;10.65;52.12
71917;BME280;59793;46.506;6.674;2023-03-04T10:51:44;97545.72;;;11.20;50.41
71917;BME280;59793;46.506;6.674;2023-03-04T10:54:21;97532.31;;;11.25;48.26
71917;BME280;59793;46.506;6.674;2023-03-04T10:59:43;97542.09;;;11.24;48.18
71917;BME280;59793;46.506;6.674;2023-03-04T11:07:41;97533.88;;;11.01;48.99
71917;BME280;59793;46.506;6.674;2023-03-04T11:13:15;97504.47;;;11.40;47.94
71917;BME280;59793;46.506;6.674;2023-03-04T11:15:53;97527.66;;;12.47;45.37
71917;BME280;59793;46.506;6.674;2023-03-04T11:18:23;97518.94;;;12.78;45.02
71917;BME280;59793;46.506;6.674;2023-03-04T11:20:53;97528.25;;;11.68;47.51
71917;BME280;59793;46.506;6.674;2023-03-04T11:25:58;97521.09;;;11.16;49.39
71917;BME280;59793;46.506;6.674;2023-03-04T11:28:40;97517.63;;;11.52;48.49
71917;BME280;59793;46.506;6.674;2023-03-04T11:31:31;97520.41;;;11.84;47.78
71917;BME280;59793;46.506;6.674;2023-03-04T11:36:56;97484.59;;;11.99;47.17
71917;BME280;59793;46.506;6.674;2023-03-04T11:44:46;97493.94;;;11.68;48.66
71917;BME280;59793;46.506;6.674;2023-03-04T11:47:27;97504.50;;;12.12;47.97
71917;BME280;59793;46.506;6.674;2023-03-04T11:50:07;97493.34;;;12.82;46.06
71917;BME280;59793;46.506;6.674;2023-03-04T11:53:01;97490.19;;;13.66;45.84
71917;BME280;59793;46.506;6.674;2023-03-04T11:55:40;97488.75;;;14.11;43.22
71917;BME280;59793;46.506;6.674;2023-03-04T12:01:14;97484.22;;;13.50;44.57
71917;BME280;59793;46.506;6.674;2023-03-04T12:06:50;97475.72;;;13.79;44.17
71917;BME280;59793;46.506;6.674;2023-03-04T12:15:31;97440.34;;;13.29;43.82
71917;BME280;59793;46.506;6.674;2023-03-04T12:23:41;97451.44;;;13.77;42.81
71917;BME280;59793;46.506;6.674;2023-03-04T12:32:21;97431.00;;;13.35;45.10
71917;BME280;59793;46.506;6.674;2023-03-04T12:43:31;97418.13;;;13.76;42.99
71917;BME280;59793;46.506;6.674;2023-03-04T12:46:20;97407.63;;;14.03;42.58
71917;BME280;59793;46.506;6.674;2023-03-04T12:51:57;97398.75;;;13.49;43.16
71917;BME280;59793;46.506;6.674;2023-03-04T12:54:33;97373.97;;;13.38;44.72
71917;BME280;59793;46.506;6.674;2023-03-04T12:57:02;97384.28;;;14.12;43.03
71917;BME280;59793;46.506;6.674;2023-03-04T12:59:39;97375.03;;;14.25;42.86
71917;BME280;59793;46.506;6.674;2023-03-04T13:05:23;97380.16;;;14.94;42.65
71917;BME280;59793;46.506;6.674;2023-03-04T13:08:33;97373.81;;;14.19;42.44
71917;BME280;59793;46.506;6.674;2023-03-04T13:10:51;97364.53;;;14.32;44.04
71917;BME280;59793;46.506;6.674;2023-03-04T13:13:40;97357.59;;;13.75;43.53
71917;BME280;59793;46.506;6.674;2023-03-04T13:16:27;97357.34;;;13.83;42.82
71917;BME280;59793;46.506;6.674;2023-03-04T13:18:54;97354.69;;;14.06;43.87
71917;BME280;59793;46.506;6.674;2023-03-04T13:21:29;97333.97;;;14.39;42.04
71917;BME280;59793;46.506;6.674;2023-03-04T13:48:42;97323.09;;;14.47;42.05
71917;BME280;59793;46.506;6.674;2023-03-04T13:51:16;97328.88;;;14.00;41.85
71917;BME280;59793;46.506;6.674;2023-03-04T13:56:35;97325.19;;;14.61;40.42
71917;BME280;59793;46.506;6.674;2023-03-04T14:04:30;97313.84;;;15.72;38.95
71917;BME280;59793;46.506;6.674;2023-03-04T14:06:58;97322.88;;;14.90;39.85
71917;BME280;59793;46.506;6.674;2023-03-04T14:09:30;97323.19;;;15.18;39.68
71917;BME280;59793;46.506;6.674;2023-03-04T14:11:58;97307.66;;;14.87;39.32
71917;BME280;59793;46.506;6.674;2023-03-04T14:14:27;97296.25;;;14.22;40.75
71917;BME280;59793;46.506;6.674;2023-03-04T14:16:59;97283.22;;;14.10;42.19
71917;BME280;59793;46.506;6.674;2023-03-04T14:19:35;97302.16;;;14.69;41.35
71917;BME280;59793;46.506;6.674;2023-03-04T14:22:16;97319.03;;;14.87;41.54
71917;BME280;59793;46.506;6.674;2023-03-04T14:25:02;97309.91;;;14.81;41.31
71917;BME280;59793;46.506;6.674;2023-03-04T14:27:31;97316.91;;;15.78;39.52
71917;BME280;59793;46.506;6.674;2023-03-04T14:29:59;97295.41;;;15.94;37.56
71917;BME280;59793;46.506;6.674;2023-03-04T14:32:25;97280.19;;;15.43;38.15
71917;BME280;59793;46.506;6.674;2023-03-04T14:34:56;97289.94;;;15.32;38.18
71917;BME280;59793;46.506;6.674;2023-03-04T14:37:25;97280.91;;;14.65;41.42
71917;BME280;59793;46.506;6.674;2023-03-04T14:39:55;97270.31;;;15.43;41.59
71917;BME280;59793;46.506;6.674;2023-03-04T14:42:24;97281.34;;;15.93;38.08
71917;BME280;59793;46.506;6.674;2023-03-04T14:44:54;97269.56;;;15.43;38.84
71917;BME280;59793;46.506;6.674;2023-03-04T14:47:39;97276.84;;;14.75;40.36
71917;BME280;59793;46.506;6.674;2023-03-04T14:50:09;97273.19;;;14.53;40.80
71917;BME280;59793;46.506;6.674;2023-03-04T14:52:44;97250.09;;;14.53;40.79
71917;BME280;59793;46.506;6.674;2023-03-04T14:57:41;97258.69;;;15.14;39.21
71917;BME280;59793;46.506;6.674;2023-03-04T15:02:51;97264.16;;;14.57;42.19
71917;BME280;59793;46.506;6.674;2023-03-04T15:05:37;97263.25;;;12.98;45.72
71917;BME280;59793;46.506;6.674;2023-03-04T15:08:21;97256.72;;;12.53;47.77
71917;BME280;59793;46.506;6.674;2023-03-04T15:10:55;97255.69;;;13.19;45.43
71917;BME280;59793;46.506;6.674;2023-03-04T15:13:43;97247.94;;;13.30;47.41